createdAt,value
2018-11-23T00:01:03.472Z,21.4
2018-11-23T00:04:09.423Z,21.4
2018-11-23T00:07:15.408Z,21.4
2018-11-23T00:10:21.438Z,21.4
2018-11-23T00:13:27.526Z,21.4
2018-11-23T00:16:33.617Z,21.3
2018-11-23T00:19:39.531Z,21.3
2018-11-23T00:22:45.536Z,21.3
2018-11-23T00:25:51.445Z,21.3
2018-11-23T00:28:57.457Z,21.3
2018-11-23T00:32:03.422Z,21.3
2018-11-23T00:35:09.428Z,21.3
2018-11-23T00:38:15.285Z,21.3
2018-11-23T00:41:21.260Z,21.3
2018-11-23T00:44:27.291Z,21.3
2018-11-23T00:47:33.161Z,21.2
2018-11-23T00:50:39.127Z,21.2
2018-11-23T00:53:45.122Z,21.2
2018-11-23T00:56:51.098Z,21.2
2018-11-23T00:59:57.031Z,21.2
2018-11-23T01:03:02.957Z,21.2
2018-11-23T01:06:08.897Z,21.2
2018-11-23T01:09:17.719Z,21.2
2018-11-23T01:12:26.387Z,21.2
2018-11-23T01:15:32.319Z,21.2
2018-11-23T01:18:38.298Z,21.2
2018-11-23T01:21:44.242Z,21.2
2018-11-23T01:24:50.181Z,21.2
2018-11-23T01:27:56.203Z,21.2
2018-11-23T01:31:02.123Z,21.2
2018-11-23T01:34:08.051Z,21.2
2018-11-23T01:37:14.039Z,21.1
2018-11-23T01:40:20.016Z,21.1
2018-11-23T01:43:26.013Z,21.1
2018-11-23T01:46:31.983Z,21.1
2018-11-23T01:49:37.878Z,21.1
2018-11-23T01:52:43.831Z,21.1
2018-11-23T01:55:49.854Z,21.1
2018-11-23T01:58:55.970Z,21.1
2018-11-23T02:02:01.852Z,21.1
2018-11-23T02:05:07.838Z,21
2018-11-23T02:08:13.737Z,20.9
2018-11-23T02:11:19.648Z,20.9
2018-11-23T02:14:25.613Z,20.8
2018-11-23T02:17:31.574Z,20.8
2018-11-23T02:20:37.582Z,20.8
2018-11-23T02:23:43.438Z,20.8
2018-11-23T02:26:49.378Z,20.8
2018-11-23T02:29:57.924Z,20.8
2018-11-23T02:33:03.943Z,20.7
2018-11-23T02:36:09.932Z,20.8
2018-11-23T02:39:15.790Z,20.8
2018-11-23T02:42:21.718Z,20.8
2018-11-23T02:45:27.601Z,20.8
2018-11-23T02:48:33.529Z,20.8
2018-11-23T02:51:39.419Z,20.8
2018-11-23T02:54:45.495Z,20.8
2018-11-23T02:57:51.494Z,20.8
2018-11-23T03:00:57.652Z,20.8
2018-11-23T03:04:03.700Z,20.8
2018-11-23T03:07:09.731Z,20.8
2018-11-23T03:10:15.588Z,20.8
2018-11-23T03:13:21.513Z,20.8
2018-11-23T03:16:27.475Z,20.8
2018-11-23T03:19:33.366Z,20.8
2018-11-23T03:22:39.303Z,20.8
2018-11-23T03:25:45.206Z,20.8
2018-11-23T03:28:51.200Z,20.7
2018-11-23T03:31:57.243Z,20.7
2018-11-23T03:35:03.372Z,20.7
2018-11-23T03:38:09.446Z,20.7
2018-11-23T03:41:15.381Z,20.7
2018-11-23T03:44:21.324Z,20.7
2018-11-23T03:47:27.195Z,20.7
2018-11-23T03:50:38.855Z,20.7
2018-11-23T03:53:44.843Z,20.8
2018-11-23T03:56:50.855Z,20.8
2018-11-23T03:59:56.764Z,20.9
2018-11-23T04:03:02.704Z,21
2018-11-23T04:06:08.695Z,21
2018-11-23T04:09:14.739Z,21
2018-11-23T04:12:20.708Z,21.1
2018-11-23T04:15:26.666Z,21.1
2018-11-23T04:18:32.599Z,21.2
2018-11-23T04:21:38.655Z,21.2
2018-11-23T04:24:44.545Z,21.3
2018-11-23T04:27:50.642Z,21.3
2018-11-23T04:30:56.745Z,21.3
2018-11-23T04:34:02.625Z,21.4
2018-11-23T04:37:08.706Z,21.4
2018-11-23T04:40:14.815Z,21.4
2018-11-23T04:43:20.702Z,21.5
2018-11-23T04:46:26.683Z,21.5
2018-11-23T04:49:32.700Z,21.5
2018-11-23T04:52:38.639Z,21.6
2018-11-23T04:55:44.651Z,21.6
2018-11-23T04:58:50.514Z,21.6
2018-11-23T05:01:56.513Z,21.6
2018-11-23T05:05:02.470Z,21.7
2018-11-23T05:08:08.427Z,21.7
2018-11-23T05:11:14.446Z,21.8
2018-11-23T05:14:20.458Z,21.8
2018-11-23T05:17:26.369Z,21.8
2018-11-23T05:20:32.427Z,21.8
2018-11-23T05:23:38.478Z,21.8
2018-11-23T05:26:44.447Z,21.9
2018-11-23T05:29:50.373Z,21.9
2018-11-23T05:32:56.342Z,21.9
2018-11-23T05:36:02.380Z,21.9
2018-11-23T05:39:08.278Z,21.9
2018-11-23T05:42:14.311Z,21.9
2018-11-23T05:45:20.239Z,21.9
2018-11-23T05:48:26.852Z,22
2018-11-23T05:48:32.530Z,22
2018-11-23T05:51:38.592Z,22
2018-11-23T05:54:47.238Z,22.1
2018-11-23T05:57:53.275Z,22.1
2018-11-23T06:00:59.209Z,22.1
2018-11-23T06:04:05.234Z,22.2
2018-11-23T06:07:11.504Z,22.3
2018-11-23T06:10:17.507Z,22.2
2018-11-23T06:13:23.512Z,22.3
2018-11-23T06:16:29.637Z,22.4
2018-11-23T06:19:35.619Z,22.4
2018-11-23T06:22:41.554Z,22.4
2018-11-23T06:25:47.557Z,22.4
2018-11-23T06:28:54.697Z,22.4
2018-11-23T06:32:00.776Z,22.4
2018-11-23T06:35:07.217Z,22.4
2018-11-23T06:38:13.206Z,22.4
2018-11-23T06:41:19.302Z,22.5
2018-11-23T06:44:25.293Z,22.5
2018-11-23T06:47:31.274Z,22.6
2018-11-23T06:50:37.312Z,22.6
2018-11-23T06:53:43.293Z,22.6
2018-11-23T06:56:49.225Z,22.7
2018-11-23T06:59:55.269Z,22.7
2018-11-23T07:03:01.204Z,22.8
2018-11-23T07:06:07.235Z,22.8
2018-11-23T07:09:13.237Z,22.8
2018-11-23T07:12:20.246Z,22.8
2018-11-23T07:15:26.161Z,22.8
2018-11-23T07:18:32.159Z,22.8
2018-11-23T07:21:38.214Z,22.9
2018-11-23T07:24:44.101Z,22.9
2018-11-23T07:27:50.041Z,23
2018-11-23T07:31:02.053Z,23
2018-11-23T07:34:08.296Z,23
2018-11-23T07:37:15.673Z,23
2018-11-23T07:40:22.061Z,23.1
2018-11-23T07:43:28.636Z,23.1
2018-11-23T07:46:34.962Z,23.1
2018-11-23T07:49:41.662Z,23.1
2018-11-23T07:52:47.931Z,23.2
2018-11-23T07:55:58.399Z,23.2
2018-11-23T07:59:04.978Z,23.3
2018-11-23T08:02:11.283Z,23.4
2018-11-23T08:05:17.305Z,23.5
2018-11-23T08:08:23.667Z,23.5
2018-11-23T08:11:30.852Z,23.6
2018-11-23T08:14:36.753Z,23.6
2018-11-23T08:17:42.689Z,23.6
2018-11-23T08:20:48.699Z,23.7
2018-11-23T08:23:54.690Z,23.7
2018-11-23T08:27:00.588Z,23.8
2018-11-23T08:30:06.964Z,23.9
2018-11-23T08:33:13.164Z,23.9
2018-11-23T08:36:20.370Z,23.9
2018-11-23T08:39:26.304Z,24
2018-11-23T08:42:32.368Z,24
2018-11-23T08:45:38.434Z,24
2018-11-23T08:48:45.516Z,24.1
2018-11-23T08:51:51.540Z,24.1
2018-11-23T08:54:57.732Z,24.2
2018-11-23T08:58:03.826Z,24.2
2018-11-23T09:01:10.108Z,24.2
2018-11-23T09:04:16.182Z,24.3
2018-11-23T09:07:22.408Z,24.3
2018-11-23T09:10:28.317Z,24.3
2018-11-23T09:13:34.697Z,24.4
2018-11-23T09:16:40.693Z,24.4
2018-11-23T09:19:46.938Z,24.4
2018-11-23T09:22:54.404Z,24.4
2018-11-23T09:26:00.508Z,24.4
2018-11-23T09:29:06.947Z,24.4
2018-11-23T09:32:13.007Z,24.4
2018-11-23T09:35:20.943Z,24.4
2018-11-23T09:38:26.872Z,24.5
2018-11-23T09:41:32.918Z,24.5
2018-11-23T09:44:38.975Z,24.4
2018-11-23T09:47:44.943Z,24.3
2018-11-23T09:50:50.885Z,24.4
2018-11-23T09:53:56.938Z,24.4
2018-11-23T09:57:02.908Z,24.4
2018-11-23T10:00:10.234Z,24.4
2018-11-23T10:03:16.205Z,24.5
2018-11-23T10:06:22.241Z,24.5
2018-11-23T10:09:28.407Z,24.6
2018-11-23T10:12:34.317Z,24.6
2018-11-23T10:15:40.585Z,24.6
2018-11-23T10:18:46.492Z,24.6
2018-11-23T10:21:52.479Z,24.6
2018-11-23T10:24:58.398Z,24.6
2018-11-23T10:28:04.749Z,24.7
2018-11-23T10:31:10.897Z,24.7
2018-11-23T10:34:17.047Z,24.8
2018-11-23T10:37:23.194Z,24.7
2018-11-23T10:40:29.078Z,24.7
2018-11-23T10:43:35.055Z,24.8
2018-11-23T10:46:40.986Z,24.8
2018-11-23T11:01:44.497Z,24.4
2018-11-23T11:18:13.787Z,24
2018-11-23T11:21:19.682Z,24.2
2018-11-23T11:24:27.165Z,24.2
2018-11-23T11:27:33.339Z,24.2
2018-11-23T11:30:39.514Z,24.2
2018-11-23T11:33:45.516Z,24.3
2018-11-23T11:36:51.415Z,24.3
2018-11-23T11:39:57.575Z,24.3
2018-11-23T11:43:03.728Z,24.3
2018-11-23T11:46:10.158Z,24.4
2018-11-23T11:49:16.244Z,24.4
2018-11-23T11:52:22.312Z,24.4
2018-11-23T11:55:28.503Z,24.5
2018-11-23T11:58:34.464Z,24.5
2018-11-23T12:01:40.601Z,24.5
2018-11-23T12:04:46.693Z,24.5
2018-11-23T12:07:56.023Z,24.6
2018-11-23T12:11:03.160Z,24.7
2018-11-23T12:14:10.610Z,24.7
2018-11-23T12:17:18.648Z,24.8
2018-11-23T12:20:28.205Z,24.8
2018-11-23T12:23:39.250Z,24.9
2018-11-23T12:26:46.742Z,24.9
2018-11-23T12:29:52.795Z,25
2018-11-23T12:32:58.765Z,25
2018-11-23T12:36:04.979Z,25
2018-11-23T12:39:10.937Z,25
2018-11-23T12:42:17.060Z,25
2018-11-23T12:45:23.081Z,25.1
2018-11-23T12:48:29.341Z,25.1
2018-11-23T12:51:37.465Z,25.1
2018-11-23T12:54:44.387Z,25.2
2018-11-23T12:57:51.381Z,25.2
2018-11-23T13:00:57.534Z,25.3
2018-11-23T13:04:03.527Z,25.3
2018-11-23T13:07:09.558Z,25.3
2018-11-23T13:10:15.705Z,25.3
2018-11-23T13:13:21.856Z,25.4
2018-11-23T13:16:28.102Z,25.4
2018-11-23T13:19:35.320Z,25.4
2018-11-23T13:22:42.360Z,25.4
2018-11-23T13:25:50.336Z,25.4
2018-11-23T13:28:57.622Z,25.4
2018-11-23T13:32:20.117Z,25.5
2018-11-23T13:35:26.173Z,25.5
2018-11-23T13:38:32.094Z,25.5
2018-11-23T13:41:38.387Z,25.4
2018-11-23T13:44:44.475Z,25.5
2018-11-23T13:47:51.495Z,25.5
2018-11-23T13:50:57.854Z,25.5
2018-11-23T13:54:03.964Z,25.5
2018-11-23T13:57:09.989Z,25.5
2018-11-23T14:00:16.309Z,25.5
2018-11-23T14:03:22.406Z,25.5
2018-11-23T14:06:28.726Z,25.5
2018-11-23T14:09:34.798Z,25.5
2018-11-23T14:12:41.207Z,25.6
2018-11-23T14:15:47.229Z,25.6
2018-11-23T14:18:53.287Z,25.6
2018-11-23T14:21:59.411Z,25.6
2018-11-23T14:25:05.512Z,25.6
2018-11-23T14:28:11.526Z,25.6
2018-11-23T14:31:17.918Z,25.5
2018-11-23T14:34:23.993Z,25.6
2018-11-23T14:37:30.185Z,25.5
2018-11-23T14:40:36.141Z,25.5
2018-11-23T14:43:43.131Z,25.5
2018-11-23T14:46:49.258Z,25.5
2018-11-23T14:49:55.165Z,25.5
2018-11-23T14:53:01.317Z,25.5
2018-11-23T14:56:07.363Z,25.5
2018-11-23T14:59:13.410Z,25.4
2018-11-23T15:02:19.340Z,25.5
2018-11-23T15:05:25.478Z,25.5
2018-11-23T15:08:31.484Z,25.5
2018-11-23T15:11:37.554Z,25.5
2018-11-23T15:14:43.623Z,25.5
2018-11-23T15:17:49.671Z,25.4
2018-11-23T15:20:55.771Z,25.3
2018-11-23T15:24:01.858Z,25.3
2018-11-23T15:27:07.911Z,25.3
2018-11-23T15:30:13.920Z,25.3
2018-11-23T15:33:19.937Z,25.3
2018-11-23T15:36:25.981Z,25.3
2018-11-23T15:39:32.041Z,25.3
2018-11-23T15:42:40.049Z,25.3
2018-11-23T15:45:46.094Z,25.2
2018-11-23T15:48:52.951Z,25.1
2018-11-23T15:51:59.014Z,25.2
2018-11-23T15:55:05.599Z,25.4
2018-11-23T15:58:11.764Z,25.7
2018-11-23T16:01:17.727Z,25.9
2018-11-23T16:04:23.750Z,26
2018-11-23T16:07:30.125Z,25.6
2018-11-23T16:10:36.217Z,25.3
2018-11-23T16:13:42.473Z,25.3
2018-11-23T16:16:48.568Z,25.3
2018-11-23T16:19:54.526Z,25.2
2018-11-23T16:23:00.523Z,25.1
2018-11-23T16:26:06.562Z,25
2018-11-23T16:29:12.476Z,25
2018-11-23T16:32:18.443Z,24.9
2018-11-23T16:35:24.455Z,24.9
2018-11-23T16:38:33.164Z,24.8
2018-11-23T16:41:39.268Z,24.8
2018-11-23T16:44:45.466Z,24.9
2018-11-23T16:47:54.289Z,24.8
2018-11-23T16:51:00.187Z,24.9
2018-11-23T16:54:06.340Z,24.8
2018-11-23T16:57:12.359Z,24.8
2018-11-23T17:00:18.375Z,24.7
2018-11-23T17:03:24.472Z,24.6
2018-11-23T17:06:30.488Z,24.5
2018-11-23T17:09:36.437Z,24.4
2018-11-23T17:12:42.361Z,24.4
2018-11-23T17:15:48.374Z,24.3
2018-11-23T17:18:54.377Z,24.3
2018-11-23T17:22:00.371Z,24.2
2018-11-23T17:25:06.322Z,24.2
2018-11-23T17:28:15.119Z,24.1
2018-11-23T17:31:21.127Z,24.1
2018-11-23T17:34:27.055Z,24.1
2018-11-23T17:37:33.134Z,24
2018-11-23T17:40:39.253Z,23.9
2018-11-23T17:43:45.168Z,23.9
2018-11-23T17:46:51.158Z,23.9
2018-11-23T17:49:57.227Z,23.8
2018-11-23T17:53:03.297Z,23.7
2018-11-23T17:56:09.311Z,23.7
2018-11-23T17:59:15.277Z,23.7
2018-11-23T18:02:21.337Z,23.6
2018-11-23T18:05:27.354Z,23.6
2018-11-23T18:08:38.603Z,23.6
2018-11-23T18:11:44.784Z,23.6
2018-11-23T18:14:50.762Z,23.6
2018-11-23T18:17:56.756Z,23.6
2018-11-23T18:21:02.796Z,23.6
2018-11-23T18:24:08.764Z,23.6
2018-11-23T18:27:14.755Z,23.6
2018-11-23T18:30:20.836Z,23.6
2018-11-23T18:33:26.847Z,23.6
2018-11-23T18:36:32.827Z,23.6
2018-11-23T18:39:39.006Z,23.6
2018-11-23T18:42:45.097Z,23.6
2018-11-23T18:45:51.120Z,23.6
2018-11-23T18:48:57.080Z,23.6
2018-11-23T18:52:03.243Z,23.6
2018-11-23T18:55:09.229Z,23.6
2018-11-23T18:58:22.770Z,23.5
2018-11-23T19:01:28.803Z,23.5
2018-11-23T19:04:34.861Z,23.5
2018-11-23T19:07:40.904Z,23.5
2018-11-23T19:10:46.870Z,23.5
2018-11-23T19:13:52.790Z,23.5
2018-11-23T19:16:58.744Z,23.5
2018-11-23T19:20:04.750Z,23.5
2018-11-23T19:23:10.731Z,23.5
2018-11-23T19:26:16.743Z,23.5
2018-11-23T19:29:22.680Z,23.4
2018-11-23T19:32:28.686Z,23.4
2018-11-23T19:35:34.697Z,23.4
2018-11-23T19:38:40.671Z,23.4
2018-11-23T19:41:46.649Z,23.4
2018-11-23T19:44:52.611Z,23.4
2018-11-23T19:47:58.561Z,23.4
2018-11-23T19:51:04.527Z,23.4
2018-11-23T19:54:10.410Z,23.4
2018-11-23T19:57:16.356Z,23.3
2018-11-23T20:00:22.240Z,23.3
2018-11-23T20:03:28.240Z,23.3
2018-11-23T20:06:34.323Z,23.2
2018-11-23T20:09:47.380Z,23.2
2018-11-23T20:12:53.406Z,23.1
2018-11-23T20:15:59.335Z,23.1
2018-11-23T20:19:05.258Z,23
2018-11-23T20:22:11.326Z,23
2018-11-23T20:25:17.339Z,22.9
2018-11-23T20:28:23.343Z,22.9
2018-11-23T20:31:29.409Z,22.8
2018-11-23T20:34:35.473Z,22.8
2018-11-23T20:37:41.472Z,22.7
2018-11-23T20:40:47.449Z,22.7
2018-11-23T20:43:55.644Z,22.6
2018-11-23T20:47:01.724Z,22.6
2018-11-23T20:50:07.649Z,22.5
2018-11-23T20:53:13.765Z,22.5
2018-11-23T20:56:19.796Z,22.4
2018-11-23T20:59:25.744Z,22.4
2018-11-23T21:02:31.722Z,22.4
2018-11-23T21:05:37.744Z,22.3
2018-11-23T21:08:43.885Z,22.3
2018-11-23T21:11:49.838Z,22.2
2018-11-23T21:14:55.743Z,22.2
2018-11-23T21:18:01.841Z,22.2
2018-11-23T21:21:07.927Z,22.2
2018-11-23T21:24:13.977Z,22.2
2018-11-23T21:27:19.883Z,22.1
2018-11-23T21:30:25.857Z,22.1
2018-11-23T21:33:31.969Z,22.1
2018-11-23T21:36:37.919Z,22.1
2018-11-23T21:39:43.875Z,22.1
2018-11-23T21:42:49.735Z,22
2018-11-23T21:45:55.698Z,22.1
2018-11-23T21:49:01.718Z,22
2018-11-23T21:52:07.606Z,22
2018-11-23T21:55:13.564Z,22
2018-11-23T21:58:19.600Z,22
2018-11-23T22:01:25.568Z,22
2018-11-23T22:04:31.495Z,22
2018-11-23T22:07:37.496Z,22
2018-11-23T22:10:43.364Z,21.9
2018-11-23T22:13:49.303Z,21.9
2018-11-23T22:16:55.239Z,21.9
2018-11-23T22:20:01.207Z,21.9
2018-11-23T22:23:07.380Z,21.9
2018-11-23T22:26:13.339Z,21.9
2018-11-23T22:29:19.475Z,21.9
2018-11-23T22:32:25.441Z,21.9
2018-11-23T22:35:31.367Z,21.9
2018-11-23T22:38:37.311Z,21.8
2018-11-23T22:41:43.316Z,21.8
2018-11-23T22:44:49.343Z,21.8
2018-11-23T22:47:55.356Z,21.8
2018-11-23T22:51:01.433Z,21.8
2018-11-23T22:54:07.422Z,21.8
2018-11-23T22:57:13.375Z,21.8
2018-11-23T23:00:19.307Z,21.8
2018-11-23T23:03:25.296Z,21.7
2018-11-23T23:06:31.211Z,21.8
2018-11-23T23:09:37.291Z,21.8
2018-11-23T23:12:43.185Z,21.7
2018-11-23T23:15:49.324Z,21.7
2018-11-23T23:18:55.281Z,21.7
2018-11-23T23:22:01.313Z,21.7
2018-11-23T23:25:07.901Z,21.7
2018-11-23T23:28:13.842Z,21.7
2018-11-23T23:31:20.028Z,21.7
2018-11-23T23:34:25.915Z,21.7
2018-11-23T23:37:31.837Z,21.7
2018-11-23T23:40:37.731Z,21.7
2018-11-23T23:43:43.733Z,21.7
2018-11-23T23:46:49.762Z,21.7
2018-11-23T23:49:55.811Z,21.7
2018-11-23T23:53:01.901Z,21.7
2018-11-23T23:56:07.819Z,21.6
2018-11-23T23:59:13.738Z,21.6
